Terminal Aerodrome Forecast
Issued by NWS Raleigh/Durham, NC

Home | Current Version | Previous Version | Text Only | Print | Product List | Glossary On
Versions: 1 2 3 4 5 6 7 8 9 10 11 12 13 14 15 16 17 18 19 20 21 22 23
000
FTUS42 KRAH 182330
TAFGSO
TAF
KGSO 182330Z 1900/1924 VRB03KT P6SM FEW200
     FM190600 12005KT P6SM -RA OVC050
     FM190800 10006KT 6SM -RA OVC015
     FM190900 08005KT 4SM -RA BR OVC007
      TEMPO 1909/1913 1SM -RA BR OVC004
     FM191300 VRB03KT 1SM -DZ BR OVC004
     FM191700 21005KT 4SM BR OVC004=

USA.gov is the U.S. government's official web portal to all federal, state and local government web resources and services.